createdAt,value
2023-01-27T00:01:15.393Z,46.58
2023-01-27T00:03:48.471Z,48.90
2023-01-27T00:06:21.092Z,41.15
2023-01-27T00:08:54.119Z,52.28
2023-01-27T00:11:45.299Z,54.13
2023-01-27T00:14:18.198Z,54.15
2023-01-27T00:16:50.757Z,65.28
2023-01-27T00:19:23.724Z,61.28
2023-01-27T00:22:14.833Z,53.28
2023-01-27T00:24:47.832Z,54.67
2023-01-27T00:27:20.373Z,63.38
2023-01-27T00:29:54.284Z,56.67
2023-01-27T00:32:45.394Z,55.10
2023-01-27T00:35:19.100Z,52.67
2023-01-27T00:37:51.730Z,58.63
2023-01-27T00:40:25.527Z,51.55
2023-01-27T00:42:58.024Z,48.10
2023-01-27T00:45:49.047Z,59.20
2023-01-27T00:48:21.543Z,56.72
2023-01-27T00:50:54.736Z,59.15
2023-01-27T00:53:27.646Z,49.15
2023-01-27T00:56:00.543Z,53.50
2023-01-27T00:58:33.241Z,51.10
2023-01-27T01:01:07.741Z,47.88
2023-01-27T01:03:40.365Z,48.53
2023-01-27T01:06:14.679Z,52.53
2023-01-27T01:08:47.561Z,45.50
2023-01-27T01:11:23.672Z,48.05
2023-01-27T01:13:56.793Z,43.67
2023-01-27T01:16:29.969Z,48.20
2023-01-27T01:19:02.545Z,57.40
2023-01-27T01:21:35.435Z,59.10
2023-01-27T01:24:09.211Z,57.20
2023-01-27T01:26:42.122Z,39.67
2023-01-27T01:29:14.768Z,49.80
2023-01-27T01:31:50.735Z,59.15
2023-01-27T01:34:23.310Z,43.45
2023-01-27T01:36:56.124Z,44.60
2023-01-27T01:39:28.712Z,46.22
2023-01-27T01:42:01.736Z,42.90
2023-01-27T01:44:34.474Z,52.30
2023-01-27T01:47:12.553Z,45.40
2023-01-27T01:49:46.793Z,45.72
2023-01-27T01:52:23.369Z,48.85
2023-01-27T01:54:57.034Z,47.50
2023-01-27T01:57:39.719Z,44.97
2023-01-27T02:00:16.012Z,46.10
2023-01-27T02:02:55.063Z,43.45
2023-01-27T02:05:29.893Z,50.35
2023-01-27T02:08:02.822Z,45.53
2023-01-27T02:10:36.176Z,49.05
2023-01-27T02:13:13.530Z,40.65
2023-01-27T02:15:46.285Z,46.20
2023-01-27T02:18:19.247Z,48.58
2023-01-27T02:20:54.031Z,48.13
2023-01-27T02:23:45.844Z,39.95
2023-01-27T02:26:20.934Z,50.17
2023-01-27T02:28:56.073Z,64.15
2023-01-27T02:31:28.980Z,43.33
2023-01-27T02:34:04.330Z,49.13
2023-01-27T02:36:58.239Z,53.58
2023-01-27T02:39:34.415Z,52.70
2023-01-27T02:42:07.938Z,47.10
2023-01-27T02:44:41.044Z,44.80
2023-01-27T02:47:13.623Z,44.38
2023-01-27T02:49:46.780Z,55.80
2023-01-27T02:52:19.427Z,50.90
2023-01-27T02:54:52.416Z,50.72
2023-01-27T02:57:25.769Z,44.15
2023-01-27T03:00:14.907Z,52.08
2023-01-27T03:02:47.516Z,48.17
2023-01-27T03:05:20.532Z,49.50
2023-01-27T03:07:54.161Z,53.28
2023-01-27T03:10:27.484Z,56.30
2023-01-27T03:13:00.729Z,59.83
2023-01-27T03:15:51.838Z,39.05
2023-01-27T03:18:24.459Z,48.25
2023-01-27T03:21:01.139Z,46.05
2023-01-27T03:23:34.869Z,51.33
2023-01-27T03:26:10.484Z,45.25
2023-01-27T03:29:06.351Z,43.33
2023-01-27T03:31:41.259Z,49.40
2023-01-27T03:34:15.425Z,53.05
2023-01-27T03:37:12.243Z,48.10
2023-01-27T03:40:03.814Z,53.85
2023-01-27T03:42:55.816Z,52.95
2023-01-27T03:45:47.012Z,55.78
2023-01-27T03:48:21.352Z,50.72
2023-01-27T03:50:57.340Z,51.30
2023-01-27T03:53:30.325Z,48.47
2023-01-27T03:56:03.100Z,41.60
2023-01-27T03:58:36.942Z,48.55
2023-01-27T04:01:14.661Z,55.20
2023-01-27T04:04:06.556Z,50.05
2023-01-27T04:06:56.750Z,46.08
2023-01-27T04:09:30.199Z,64.47
2023-01-27T04:12:04.829Z,44.78
2023-01-27T04:14:39.276Z,66.25
2023-01-27T04:17:19.128Z,49.95
2023-01-27T04:19:52.386Z,61.28
2023-01-27T04:22:24.865Z,48.13
2023-01-27T04:24:57.760Z,50.97
2023-01-27T04:27:30.232Z,53.35
2023-01-27T04:30:03.224Z,53.28
2023-01-27T04:32:35.949Z,61.63
2023-01-27T04:35:09.006Z,57.45
2023-01-27T04:37:41.711Z,52.85
2023-01-27T04:40:14.785Z,49.92
2023-01-27T04:42:47.398Z,49.30
2023-01-27T04:45:20.695Z,50.33
2023-01-27T04:47:53.174Z,54.60
2023-01-27T04:50:26.242Z,59.45
2023-01-27T04:52:58.912Z,63.22
2023-01-27T04:55:31.825Z,56.50
2023-01-27T04:58:04.627Z,55.25
2023-01-27T05:00:37.499Z,55.28
2023-01-27T05:03:10.658Z,51.63
2023-01-27T05:05:43.550Z,65.07
2023-01-27T05:08:16.146Z,48.25
2023-01-27T05:10:49.623Z,49.35
2023-01-27T05:13:22.420Z,51.47
2023-01-27T05:16:08.514Z,52.95
2023-01-27T05:18:42.064Z,46.65
2023-01-27T05:21:16.510Z,44.88
2023-01-27T05:23:49.482Z,40.70
2023-01-27T05:26:23.721Z,24.75
2023-01-27T05:28:59.801Z,29.40
2023-01-27T05:31:32.917Z,30.90
2023-01-27T05:34:05.631Z,33.92
2023-01-27T05:36:38.551Z,28.55
2023-01-27T05:39:11.974Z,36.45
2023-01-27T05:41:44.922Z,35.03
2023-01-27T05:44:17.403Z,57.50
2023-01-27T05:46:50.338Z,52.80
2023-01-27T05:49:23.030Z,54.10
2023-01-27T05:51:55.975Z,43.15
2023-01-27T05:54:28.510Z,46.28
2023-01-27T05:57:01.543Z,49.95
2023-01-27T05:59:34.150Z,39.65
2023-01-27T06:02:07.079Z,40.05
2023-01-27T06:04:39.649Z,36.17
2023-01-27T06:07:12.489Z,29.88
2023-01-27T06:09:45.197Z,27.23
2023-01-27T06:12:18.268Z,29.42
2023-01-27T06:14:50.886Z,31.88
2023-01-27T06:17:23.738Z,31.15
2023-01-27T06:19:56.351Z,26.33
2023-01-27T06:22:29.154Z,20.27
2023-01-27T06:25:01.626Z,22.55
2023-01-27T06:27:34.589Z,26.48
2023-01-27T06:30:07.517Z,24.15
2023-01-27T06:32:40.438Z,20.65
2023-01-27T06:35:13.329Z,23.38
2023-01-27T06:37:46.695Z,22.98
2023-01-27T06:40:19.517Z,19.55
2023-01-27T06:42:52.502Z,18.30
2023-01-27T06:45:25.117Z,18.98
2023-01-27T06:48:01.651Z,13.65
2023-01-27T06:50:34.412Z,14.48
2023-01-27T06:53:07.654Z,16.63
2023-01-27T06:55:42.066Z,18.65
2023-01-27T06:58:15.928Z,14.55
2023-01-27T07:00:48.727Z,14.95
2023-01-27T07:03:21.689Z,17.70
2023-01-27T07:05:54.373Z,20.40
2023-01-27T07:08:27.259Z,13.32
2023-01-27T07:11:02.312Z,21.65
2023-01-27T07:13:35.349Z,15.38
2023-01-27T07:16:08.035Z,16.45
2023-01-27T07:18:41.266Z,16.02
2023-01-27T07:21:13.794Z,19.90
2023-01-27T07:23:47.255Z,24.45
2023-01-27T07:26:25.106Z,16.30
2023-01-27T07:28:58.901Z,16.45
2023-01-27T07:31:31.498Z,16.85
2023-01-27T07:34:04.410Z,14.52
2023-01-27T07:36:36.872Z,22.08
2023-01-27T07:39:09.901Z,20.08
2023-01-27T07:41:42.964Z,15.90
2023-01-27T07:44:21.955Z,22.13
2023-01-27T07:46:54.696Z,18.45
2023-01-27T07:49:27.783Z,15.70
2023-01-27T07:52:00.345Z,17.80
2023-01-27T07:54:33.292Z,13.70
2023-01-27T07:57:05.820Z,15.27
2023-01-27T07:59:38.735Z,13.35
2023-01-27T08:02:11.551Z,17.30
2023-01-27T08:04:52.870Z,19.40
2023-01-27T08:07:25.698Z,13.98
2023-01-27T08:09:58.794Z,17.73
2023-01-27T08:12:31.373Z,17.63
2023-01-27T08:15:04.747Z,19.10
2023-01-27T08:17:37.403Z,21.40
2023-01-27T08:20:11.684Z,23.40
2023-01-27T08:22:44.982Z,21.88
2023-01-27T08:25:17.901Z,20.33
2023-01-27T08:27:51.205Z,17.65
2023-01-27T08:30:24.332Z,25.45
2023-01-27T08:32:57.274Z,22.02
2023-01-27T08:35:30.580Z,22.98
2023-01-27T08:38:03.064Z,25.58
2023-01-27T08:40:35.969Z,21.40
2023-01-27T08:43:09.307Z,21.58
2023-01-27T08:45:42.543Z,20.98
2023-01-27T08:48:15.098Z,22.88
2023-01-27T08:50:48.199Z,23.15
2023-01-27T08:53:22.327Z,14.95
2023-01-27T08:55:59.508Z,15.32
2023-01-27T08:58:33.622Z,16.05
2023-01-27T09:01:07.104Z,17.23
2023-01-27T09:03:39.684Z,19.30
2023-01-27T09:06:13.362Z,16.08
2023-01-27T09:09:05.851Z,19.67
2023-01-27T09:11:40.121Z,14.75
2023-01-27T09:14:12.671Z,16.55
2023-01-27T09:16:45.543Z,13.77
2023-01-27T09:19:18.111Z,14.43
2023-01-27T09:21:50.980Z,18.35
2023-01-27T09:24:23.696Z,15.20
2023-01-27T09:26:56.564Z,11.90
2023-01-27T09:29:29.944Z,13.20
2023-01-27T09:32:03.390Z,20.60
2023-01-27T09:34:36.366Z,10.85
2023-01-27T09:37:10.219Z,8.75
2023-01-27T09:39:48.340Z,13.02
2023-01-27T09:42:40.384Z,20.27
2023-01-27T09:45:25.208Z,14.10
2023-01-27T09:48:10.630Z,17.63
2023-01-27T09:50:45.675Z,13.07
2023-01-27T09:53:33.671Z,13.40
2023-01-27T09:56:20.701Z,20.27
2023-01-27T09:59:12.404Z,13.73
2023-01-27T10:02:07.919Z,11.88
2023-01-27T10:04:43.631Z,16.02
2023-01-27T10:07:34.649Z,13.32
2023-01-27T10:10:13.771Z,15.57
2023-01-27T10:12:46.433Z,17.33
2023-01-27T10:15:33.087Z,10.20
2023-01-27T10:18:11.529Z,12.05
2023-01-27T10:21:03.415Z,12.25
2023-01-27T10:23:44.957Z,14.95
2023-01-27T10:28:56.381Z,16.95
2023-01-27T10:31:35.216Z,17.27
2023-01-27T10:34:23.439Z,11.32
2023-01-27T10:36:59.874Z,17.35
2023-01-27T10:39:37.643Z,21.27
2023-01-27T10:42:18.558Z,20.55
2023-01-27T10:45:01.787Z,9.98
2023-01-27T10:47:47.185Z,16.25
2023-01-27T10:50:30.687Z,8.85
2023-01-27T10:53:41.955Z,13.02
2023-01-27T10:56:20.295Z,12.05
2023-01-27T10:59:01.923Z,12.77
2023-01-27T11:01:37.806Z,12.18
2023-01-27T11:04:14.284Z,9.10
2023-01-27T11:06:47.704Z,16.73
2023-01-27T11:09:29.495Z,10.02
2023-01-27T11:12:03.857Z,17.13
2023-01-27T11:14:47.974Z,23.63
2023-01-27T11:17:37.555Z,14.25
2023-01-27T11:20:13.586Z,13.27
2023-01-27T11:22:49.072Z,14.93
2023-01-27T11:25:30.186Z,16.67
2023-01-27T11:28:15.164Z,14.87
2023-01-27T11:31:04.907Z,20.15
2023-01-27T11:33:46.300Z,14.38
2023-01-27T11:38:51.509Z,18.63
2023-01-27T11:41:24.808Z,12.85
2023-01-27T11:43:57.372Z,24.77
2023-01-27T11:46:31.558Z,16.23
2023-01-27T11:49:04.743Z,15.73
2023-01-27T11:51:41.116Z,18.13
2023-01-27T11:54:19.077Z,11.38
2023-01-27T11:56:51.959Z,10.32
2023-01-27T11:59:26.704Z,17.88
2023-01-27T12:02:01.877Z,17.52
2023-01-27T12:04:52.687Z,18.63
2023-01-27T12:07:44.470Z,17.75
2023-01-27T12:10:31.601Z,18.13
2023-01-27T12:13:18.048Z,21.25
2023-01-27T12:15:55.622Z,11.48
2023-01-27T12:18:32.072Z,14.73
2023-01-27T12:21:07.000Z,28.45
2023-01-27T12:23:47.405Z,24.83
2023-01-27T12:26:36.924Z,22.65
2023-01-27T12:29:26.527Z,19.17
2023-01-27T12:32:00.657Z,22.65
2023-01-27T12:34:36.678Z,24.85
2023-01-27T12:37:19.669Z,18.83
2023-01-27T12:40:00.786Z,17.63
2023-01-27T12:42:36.389Z,15.63
2023-01-27T12:45:27.513Z,20.92
2023-01-27T12:48:02.025Z,15.23
2023-01-27T12:50:36.123Z,16.40
2023-01-27T12:53:13.230Z,16.92
2023-01-27T12:55:56.279Z,15.73
2023-01-27T12:58:28.781Z,15.55
2023-01-27T13:01:20.768Z,13.85
2023-01-27T13:03:56.150Z,20.67
2023-01-27T13:06:32.381Z,22.10
2023-01-27T13:09:05.073Z,22.13
2023-01-27T13:11:40.400Z,10.77
2023-01-27T13:14:19.108Z,15.80
2023-01-27T13:16:53.481Z,16.70
2023-01-27T13:19:38.424Z,20.08
2023-01-27T13:22:17.992Z,17.73
2023-01-27T13:24:53.344Z,15.02
2023-01-27T13:27:26.610Z,16.90
2023-01-27T13:30:03.806Z,24.52
2023-01-27T13:32:37.216Z,14.38
2023-01-27T13:35:15.912Z,13.00
2023-01-27T13:37:52.096Z,16.33
2023-01-27T13:40:45.122Z,19.30
2023-01-27T13:43:34.110Z,19.70
2023-01-27T13:46:06.914Z,15.98
2023-01-27T13:48:42.900Z,22.05
2023-01-27T13:51:17.212Z,16.25
2023-01-27T13:53:54.456Z,18.92
2023-01-27T13:56:46.981Z,18.63
2023-01-27T13:59:35.282Z,16.27
2023-01-27T14:02:29.114Z,14.38
2023-01-27T14:05:20.441Z,16.75
2023-01-27T14:07:58.831Z,12.27
2023-01-27T14:10:42.208Z,16.08
2023-01-27T14:13:33.209Z,15.88
2023-01-27T14:16:12.573Z,19.40
2023-01-27T14:18:47.108Z,16.70
2023-01-27T14:21:45.451Z,21.92
2023-01-27T14:24:31.526Z,24.85
2023-01-27T14:27:16.852Z,16.23
2023-01-27T14:30:05.027Z,17.50
2023-01-27T14:32:42.269Z,9.77
2023-01-27T14:35:33.262Z,18.30
2023-01-27T14:38:06.134Z,24.20
2023-01-27T14:40:53.751Z,23.23
2023-01-27T14:43:45.353Z,11.32
2023-01-27T14:46:24.194Z,16.55
2023-01-27T14:49:06.089Z,10.35
2023-01-27T14:51:57.099Z,9.60
2023-01-27T14:54:35.779Z,9.65
2023-01-27T14:57:09.195Z,16.08
2023-01-27T14:59:42.136Z,17.65
2023-01-27T15:02:17.727Z,17.05
2023-01-27T15:05:09.288Z,18.45
2023-01-27T15:07:41.760Z,16.10
2023-01-27T15:10:30.807Z,19.67
2023-01-27T15:13:06.365Z,23.10
2023-01-27T15:15:59.259Z,22.75
2023-01-27T15:18:50.400Z,25.17
2023-01-27T15:21:33.295Z,21.60
2023-01-27T15:24:05.855Z,22.77
2023-01-27T15:26:39.775Z,21.65
2023-01-27T15:29:14.114Z,14.57
2023-01-27T15:32:07.161Z,20.80
2023-01-27T15:34:39.787Z,24.33
2023-01-27T15:37:14.581Z,23.88
2023-01-27T15:40:07.041Z,18.85
2023-01-27T15:43:02.950Z,34.58
2023-01-27T15:45:39.430Z,21.33
2023-01-27T15:48:12.300Z,28.80
2023-01-27T15:50:49.192Z,39.88
2023-01-27T15:53:30.513Z,38.75
2023-01-27T15:56:03.549Z,30.40
2023-01-27T15:58:46.429Z,16.52
2023-01-27T16:01:27.950Z,21.42
2023-01-27T16:04:06.735Z,21.83
2023-01-27T16:06:52.041Z,21.77
2023-01-27T16:09:31.387Z,23.70
2023-01-27T16:12:22.613Z,24.67
2023-01-27T16:15:01.324Z,22.80
2023-01-27T16:17:34.080Z,27.55
2023-01-27T16:20:16.201Z,25.50
2023-01-27T16:22:52.456Z,30.13
2023-01-27T16:25:45.689Z,29.67
2023-01-27T16:28:31.339Z,42.40
2023-01-27T16:31:06.892Z,34.55
2023-01-27T16:33:44.340Z,32.85
2023-01-27T16:36:26.045Z,29.15
2023-01-27T16:39:03.458Z,33.22
2023-01-27T16:41:38.187Z,32.08
2023-01-27T16:44:10.874Z,26.75
2023-01-27T16:46:50.862Z,24.63
2023-01-27T16:49:27.613Z,18.20
2023-01-27T16:52:02.026Z,22.33
2023-01-27T16:54:36.417Z,19.17
2023-01-27T16:57:22.377Z,23.75
2023-01-27T16:59:56.097Z,19.20
2023-01-27T17:02:30.373Z,20.70
2023-01-27T17:05:06.561Z,26.23
2023-01-27T17:07:39.502Z,21.33
2023-01-27T17:10:18.963Z,18.13
2023-01-27T17:12:57.813Z,25.15
2023-01-27T17:15:34.683Z,25.08
2023-01-27T17:18:11.750Z,28.50
2023-01-27T17:20:46.945Z,21.38
2023-01-27T17:23:24.975Z,36.83
2023-01-27T17:25:57.696Z,22.75
2023-01-27T17:28:30.601Z,34.58
2023-01-27T17:31:07.602Z,35.55
2023-01-27T17:33:40.668Z,30.17
2023-01-27T17:36:14.649Z,26.08
2023-01-27T17:38:49.100Z,26.10
2023-01-27T17:41:24.742Z,49.50
2023-01-27T17:44:01.695Z,41.42
2023-01-27T17:46:34.621Z,33.80
2023-01-27T17:49:12.845Z,30.50
2023-01-27T17:51:47.151Z,36.30
2023-01-27T17:54:20.591Z,36.00
2023-01-27T17:56:59.052Z,55.92
2023-01-27T17:59:32.284Z,33.38
2023-01-27T18:02:07.754Z,31.08
2023-01-27T18:04:42.749Z,36.80
2023-01-27T18:07:15.783Z,33.80
2023-01-27T18:09:52.997Z,37.75
2023-01-27T18:12:29.035Z,31.38
2023-01-27T18:15:20.250Z,38.67
2023-01-27T18:17:59.396Z,34.55
2023-01-27T18:20:33.829Z,27.85
2023-01-27T18:23:12.754Z,36.08
2023-01-27T18:25:53.604Z,28.63
2023-01-27T18:28:27.757Z,37.78
2023-01-27T18:31:01.349Z,30.65
2023-01-27T18:33:34.325Z,36.15
2023-01-27T18:36:19.414Z,37.70
2023-01-27T18:38:52.158Z,67.85
2023-01-27T18:41:27.513Z,42.80
2023-01-27T18:44:03.305Z,58.90
2023-01-27T18:46:36.236Z,32.42
2023-01-27T18:49:10.723Z,41.00
2023-01-27T18:51:43.569Z,37.55
2023-01-27T18:54:16.150Z,24.83
2023-01-27T18:56:49.079Z,25.17
2023-01-27T18:59:21.559Z,35.60
2023-01-27T19:01:54.535Z,27.02
2023-01-27T19:04:27.540Z,24.27
2023-01-27T19:07:00.604Z,21.65
2023-01-27T19:09:33.452Z,27.70
2023-01-27T19:12:06.481Z,20.13
2023-01-27T19:14:39.284Z,26.02
2023-01-27T19:17:24.525Z,26.20
2023-01-27T19:19:57.146Z,27.85
2023-01-27T19:22:30.576Z,28.00
2023-01-27T19:25:03.095Z,27.15
2023-01-27T19:27:37.332Z,22.48
2023-01-27T19:30:16.040Z,32.15
2023-01-27T19:32:48.925Z,27.75
2023-01-27T19:35:22.961Z,41.10
2023-01-27T19:37:56.549Z,38.58
2023-01-27T19:40:29.897Z,40.50
2023-01-27T19:43:02.797Z,38.80
2023-01-27T19:45:35.552Z,33.47
2023-01-27T19:48:15.818Z,32.55
2023-01-27T19:50:48.803Z,39.60
2023-01-27T19:53:21.792Z,35.38
2023-01-27T19:55:57.458Z,41.58
2023-01-27T19:58:31.023Z,40.22
2023-01-27T20:01:03.700Z,31.48
2023-01-27T20:03:36.576Z,31.83
2023-01-27T20:06:15.923Z,29.05
2023-01-27T20:08:52.470Z,33.00
2023-01-27T20:11:43.137Z,33.30
2023-01-27T20:14:19.397Z,32.47
2023-01-27T20:16:52.613Z,38.40
2023-01-27T20:19:25.524Z,44.95
2023-01-27T20:21:59.277Z,33.40
2023-01-27T20:24:32.388Z,33.42
2023-01-27T20:27:04.949Z,33.90
2023-01-27T20:29:37.888Z,37.22
2023-01-27T20:32:10.470Z,44.15
2023-01-27T20:34:43.414Z,42.33
2023-01-27T20:37:16.101Z,35.78
2023-01-27T20:39:49.113Z,39.80
2023-01-27T20:42:21.755Z,37.25
2023-01-27T20:44:54.689Z,61.45
2023-01-27T20:47:27.158Z,52.65
2023-01-27T20:50:00.614Z,54.10
2023-01-27T20:52:36.552Z,38.00
2023-01-27T20:55:10.056Z,35.50
2023-01-27T20:57:42.657Z,35.00
2023-01-27T21:00:19.616Z,34.03
2023-01-27T21:02:52.102Z,35.75
2023-01-27T21:05:25.212Z,38.20
2023-01-27T21:07:57.768Z,46.80
2023-01-27T21:10:30.792Z,40.75
2023-01-27T21:13:03.356Z,32.28
2023-01-27T21:15:36.243Z,41.92
2023-01-27T21:18:08.822Z,46.53
2023-01-27T21:20:46.667Z,44.80
2023-01-27T21:23:20.908Z,38.95
2023-01-27T21:25:54.223Z,39.00
2023-01-27T21:28:27.127Z,47.13
2023-01-27T21:31:05.431Z,51.72
2023-01-27T21:33:39.256Z,37.83
2023-01-27T21:36:12.459Z,53.47
2023-01-27T21:38:44.963Z,37.35
2023-01-27T21:41:37.290Z,46.75
2023-01-27T21:47:01.191Z,52.00
2023-01-27T21:49:34.621Z,48.35
2023-01-27T21:52:07.501Z,55.80
2023-01-27T21:54:40.046Z,49.22
2023-01-27T21:57:12.966Z,47.30
2023-01-27T21:59:45.812Z,52.22
2023-01-27T22:02:18.670Z,44.80
2023-01-27T22:04:51.410Z,45.05
2023-01-27T22:07:24.421Z,60.13
2023-01-27T22:09:57.007Z,53.22
2023-01-27T22:12:29.964Z,53.58
2023-01-27T22:15:02.701Z,60.72
2023-01-27T22:17:36.538Z,54.65
2023-01-27T22:20:15.643Z,50.63
2023-01-27T22:22:48.665Z,47.67
2023-01-27T22:25:21.955Z,48.15
2023-01-27T22:27:55.490Z,63.67
2023-01-27T22:30:28.067Z,47.83
2023-01-27T22:33:00.978Z,41.03
2023-01-27T22:35:34.417Z,44.30
2023-01-27T22:38:07.500Z,47.85
2023-01-27T22:40:40.345Z,51.00
2023-01-27T22:43:13.285Z,57.85
2023-01-27T22:45:45.929Z,44.97
2023-01-27T22:48:18.849Z,51.05
2023-01-27T22:50:51.352Z,48.55
2023-01-27T22:53:24.216Z,45.13
2023-01-27T22:56:00.905Z,49.08
2023-01-27T22:58:33.820Z,59.15
2023-01-27T23:01:07.126Z,64.47
2023-01-27T23:03:40.105Z,54.95
2023-01-27T23:06:12.970Z,51.90
2023-01-27T23:08:45.926Z,54.33
2023-01-27T23:11:18.510Z,60.25
2023-01-27T23:13:51.527Z,50.63
2023-01-27T23:16:24.102Z,50.88
2023-01-27T23:18:57.042Z,86.88
2023-01-27T23:21:31.762Z,59.88
2023-01-27T23:24:07.323Z,51.45
2023-01-27T23:26:48.375Z,77.95
2023-01-27T23:29:27.269Z,47.28
2023-01-27T23:32:02.026Z,63.40
2023-01-27T23:34:35.040Z,62.63
2023-01-27T23:37:08.031Z,61.88
2023-01-27T23:39:46.010Z,53.97
2023-01-27T23:42:18.806Z,62.42
2023-01-27T23:44:51.751Z,52.28
2023-01-27T23:47:24.225Z,69.22
2023-01-27T23:49:57.204Z,49.85
2023-01-27T23:52:31.378Z,52.85
2023-01-27T23:55:04.435Z,68.90
2023-01-27T23:57:37.418Z,46.72
